createdAt,value
2016-11-10T00:00:58.742Z,52.03
2016-11-10T00:01:58.715Z,51.84
2016-11-10T00:02:58.698Z,52.03
2016-11-10T00:03:58.684Z,51.64
2016-11-10T00:04:58.669Z,52.03
2016-11-10T00:05:58.651Z,52.12
2016-11-10T00:06:58.665Z,52.12
2016-11-10T00:07:58.622Z,52.12
2016-11-10T00:08:58.606Z,52.32
2016-11-10T00:09:58.583Z,52.22
2016-11-10T00:10:58.270Z,52.12
2016-11-10T00:11:58.552Z,52.22
2016-11-10T00:12:58.537Z,52.22
2016-11-10T00:13:58.522Z,52.32
2016-11-10T00:14:58.508Z,52.61
2016-11-10T00:15:58.488Z,51.93
2016-11-10T00:16:58.471Z,52.51
2016-11-10T00:17:58.459Z,52.42
2016-11-10T00:18:58.443Z,52.22
2016-11-10T00:19:58.423Z,52.12
2016-11-10T00:20:58.412Z,52.7
2016-11-10T00:21:58.386Z,52.61
2016-11-10T00:22:58.376Z,52.61
2016-11-10T00:23:58.356Z,52.7
2016-11-10T00:24:58.340Z,52.61
2016-11-10T00:25:58.325Z,52.61
2016-11-10T00:26:58.304Z,52.42
2016-11-10T00:27:58.303Z,52.51
2016-11-10T00:28:58.275Z,52.61
2016-11-10T00:29:58.262Z,52.51
2016-11-10T00:30:58.238Z,52.7
2016-11-10T00:31:58.227Z,52.7
2016-11-10T00:32:58.208Z,52.7
2016-11-10T00:33:58.194Z,52.61
2016-11-10T00:34:58.175Z,52.68
2016-11-10T00:35:58.156Z,52.51
2016-11-10T00:36:58.141Z,52.48
2016-11-10T00:37:58.130Z,52.58
2016-11-10T00:38:58.109Z,52.58
2016-11-10T00:39:58.095Z,52.48
2016-11-10T00:40:58.076Z,52.48
2016-11-10T00:41:58.063Z,52.48
2016-11-10T00:42:58.041Z,52.48
2016-11-10T00:43:58.030Z,52.58
2016-11-10T00:44:58.011Z,52.48
2016-11-10T00:45:57.992Z,52.58
2016-11-10T00:46:57.982Z,52.2
2016-11-10T00:47:57.964Z,52.29
2016-11-10T00:48:57.952Z,52.58
2016-11-10T00:49:57.929Z,52.48
2016-11-10T00:50:57.917Z,52.58
2016-11-10T00:51:57.896Z,52.48
2016-11-10T00:52:57.879Z,52.29
2016-11-10T00:53:57.898Z,52.58
2016-11-10T00:54:57.861Z,52.58
2016-11-10T00:55:57.845Z,52.68
2016-11-10T00:56:57.818Z,52.48
2016-11-10T00:57:57.803Z,52.58
2016-11-10T00:58:57.782Z,52.58
2016-11-10T00:59:57.763Z,52.97
2016-11-10T01:00:57.747Z,52.39
2016-11-10T01:01:57.730Z,52.39
2016-11-10T01:02:57.720Z,52.29
2016-11-10T01:03:57.702Z,52.48
2016-11-10T01:04:57.682Z,52.39
2016-11-10T01:05:57.676Z,52.39
2016-11-10T01:06:57.652Z,52.77
2016-11-10T01:07:57.634Z,52.77
2016-11-10T01:08:57.617Z,52.29
2016-11-10T01:09:57.598Z,52.39
2016-11-10T01:10:57.583Z,52.58
2016-11-10T01:11:57.566Z,52.39
2016-11-10T01:12:57.827Z,52.39
2016-11-10T01:13:57.535Z,52.58
2016-11-10T01:14:57.520Z,52.58
2016-11-10T01:15:57.503Z,52.68
2016-11-10T01:16:57.486Z,52.68
2016-11-10T01:17:57.470Z,52.87
2016-11-10T01:18:57.449Z,53.06
2016-11-10T01:19:57.436Z,52.58
2016-11-10T01:20:57.121Z,53.16
2016-11-10T01:21:57.410Z,52.58
2016-11-10T01:22:57.386Z,52.87
2016-11-10T01:23:57.371Z,52.48
2016-11-10T01:24:57.353Z,52.48
2016-11-10T01:25:57.340Z,52.39
2016-11-10T01:26:57.323Z,52.29
2016-11-10T01:27:57.302Z,53.06
2016-11-10T01:28:57.288Z,52.87
2016-11-10T01:29:57.265Z,53.06
2016-11-10T01:30:57.255Z,52.87
2016-11-10T01:31:57.242Z,52.87
2016-11-10T01:32:57.219Z,52.87
2016-11-10T01:33:57.203Z,53.06
2016-11-10T01:34:57.186Z,52.68
2016-11-10T01:35:57.176Z,52.97
2016-11-10T01:36:57.158Z,52.87
2016-11-10T01:37:57.142Z,52.97
2016-11-10T01:38:57.123Z,52.87
2016-11-10T01:39:57.107Z,52.77
2016-11-10T01:40:57.092Z,53.16
2016-11-10T01:41:57.071Z,52.77
2016-11-10T01:42:57.054Z,53.16
2016-11-10T01:43:57.042Z,53.16
2016-11-10T01:44:57.026Z,53.45
2016-11-10T01:45:57.012Z,53.64
2016-11-10T01:46:56.989Z,53.45
2016-11-10T01:47:56.973Z,53.45
2016-11-10T01:48:56.954Z,53.06
2016-11-10T01:49:56.939Z,53.54
2016-11-10T01:50:56.922Z,53.16
2016-11-10T01:51:56.905Z,53.25
2016-11-10T01:52:56.889Z,53.54
2016-11-10T01:53:56.876Z,53.54
2016-11-10T01:54:56.853Z,53.35
2016-11-10T01:55:56.844Z,53.35
2016-11-10T01:56:56.827Z,53.64
2016-11-10T01:57:56.816Z,53.74
2016-11-10T01:58:56.786Z,53.54
2016-11-10T01:59:56.775Z,53.83
2016-11-10T02:00:56.758Z,53.74
2016-11-10T02:01:56.740Z,53.45
2016-11-10T02:02:56.723Z,53.83
2016-11-10T02:03:56.706Z,53.54
2016-11-10T02:04:56.695Z,53.54
2016-11-10T02:05:56.678Z,53.35
2016-11-10T02:06:56.657Z,53.83
2016-11-10T02:07:56.643Z,53.74
2016-11-10T02:08:56.624Z,53.83
2016-11-10T02:09:56.613Z,53.83
2016-11-10T02:10:56.594Z,53.83
2016-11-10T02:11:56.574Z,53.74
2016-11-10T02:12:56.558Z,53.35
2016-11-10T02:13:56.546Z,53.52
2016-11-10T02:14:56.523Z,53.64
2016-11-10T02:15:56.510Z,53.54
2016-11-10T02:16:56.495Z,53.54
2016-11-10T02:17:56.475Z,53.52
2016-11-10T02:18:56.159Z,53.35
2016-11-10T02:19:56.443Z,53.45
2016-11-10T02:20:56.427Z,53.52
2016-11-10T02:21:56.416Z,54.12
2016-11-10T02:22:56.397Z,54.38
2016-11-10T02:23:56.379Z,53.92
2016-11-10T02:24:56.363Z,54.31
2016-11-10T02:25:56.375Z,54.31
2016-11-10T02:26:56.029Z,54.41
2016-11-10T02:27:56.313Z,54.41
2016-11-10T02:28:56.293Z,54.31
2016-11-10T02:29:56.282Z,54.31
2016-11-10T02:30:56.263Z,54.31
2016-11-10T02:31:56.250Z,54.38
2016-11-10T02:32:56.227Z,54.47
2016-11-10T02:33:56.216Z,54.19
2016-11-10T02:34:56.195Z,54.28
2016-11-10T02:35:56.173Z,54.19
2016-11-10T02:36:56.160Z,54.28
2016-11-10T02:37:56.147Z,54
2016-11-10T02:38:56.126Z,54.09
2016-11-10T02:39:56.110Z,54.09
2016-11-10T02:40:56.093Z,54.28
2016-11-10T02:41:56.076Z,54.28
2016-11-10T02:42:56.059Z,54
2016-11-10T02:43:56.039Z,54.09
2016-11-10T02:44:56.025Z,54.09
2016-11-10T02:45:56.006Z,54
2016-11-10T02:46:55.994Z,54.09
2016-11-10T02:47:55.976Z,54.09
2016-11-10T02:48:55.959Z,54.19
2016-11-10T02:49:55.944Z,54
2016-11-10T02:50:55.930Z,54
2016-11-10T02:51:55.907Z,54.19
2016-11-10T02:52:55.588Z,54
2016-11-10T02:53:55.877Z,54
2016-11-10T02:54:55.857Z,54
2016-11-10T02:55:55.866Z,53.8
2016-11-10T02:56:55.825Z,53.8
2016-11-10T02:57:55.808Z,54
2016-11-10T02:58:55.797Z,54.28
2016-11-10T02:59:55.783Z,54.28
2016-11-10T03:00:55.758Z,54.28
2016-11-10T03:01:55.743Z,54.09
2016-11-10T03:02:55.722Z,54.09
2016-11-10T03:03:55.705Z,54.09
2016-11-10T03:04:55.695Z,54
2016-11-10T03:05:55.676Z,54.28
2016-11-10T03:06:55.657Z,54.38
2016-11-10T03:07:55.641Z,54.19
2016-11-10T03:08:55.628Z,54
2016-11-10T03:09:55.607Z,54.38
2016-11-10T03:10:55.592Z,54.38
2016-11-10T03:11:55.575Z,54.28
2016-11-10T03:12:55.584Z,54
2016-11-10T03:13:55.544Z,54
2016-11-10T03:14:55.523Z,54.28
2016-11-10T03:15:55.508Z,54.28
2016-11-10T03:16:55.490Z,54
2016-11-10T03:17:55.473Z,54.19
2016-11-10T03:18:55.456Z,54.09
2016-11-10T03:19:55.139Z,54
2016-11-10T03:20:55.424Z,54
2016-11-10T03:21:55.408Z,54.09
2016-11-10T03:22:55.395Z,54.09
2016-11-10T03:23:55.370Z,54
2016-11-10T03:24:55.361Z,54.09
2016-11-10T03:25:55.340Z,54.09
2016-11-10T03:26:55.321Z,54.09
2016-11-10T03:27:55.307Z,53.8
2016-11-10T03:28:55.288Z,53.9
2016-11-10T03:29:55.272Z,54.19
2016-11-10T03:30:55.259Z,53.8
2016-11-10T03:31:55.247Z,53.9
2016-11-10T03:32:55.231Z,54
2016-11-10T03:33:55.208Z,54.19
2016-11-10T03:34:55.191Z,54.19
2016-11-10T03:35:55.172Z,54.19
2016-11-10T03:36:55.156Z,54.09
2016-11-10T03:37:55.137Z,54.09
2016-11-10T03:38:54.826Z,54.19
2016-11-10T03:39:55.113Z,54.28
2016-11-10T03:40:55.090Z,54.28
2016-11-10T03:41:55.071Z,54.47
2016-11-10T03:42:55.055Z,54.38
2016-11-10T03:43:55.038Z,54.47
2016-11-10T03:44:55.057Z,54.28
2016-11-10T03:45:55.008Z,54.28
2016-11-10T03:46:54.990Z,54
2016-11-10T03:47:54.971Z,54.28
2016-11-10T03:48:54.954Z,54.09
2016-11-10T03:49:54.939Z,53.9
2016-11-10T03:50:54.924Z,54
2016-11-10T03:51:54.912Z,54.47
2016-11-10T03:52:54.891Z,54.47
2016-11-10T03:53:54.570Z,54.38
2016-11-10T03:54:54.853Z,54.19
2016-11-10T03:55:54.840Z,54.09
2016-11-10T03:56:54.824Z,54
2016-11-10T03:57:54.504Z,53.9
2016-11-10T03:58:54.787Z,53.9
2016-11-10T03:59:54.773Z,54
2016-11-10T04:00:54.752Z,54.09
2016-11-10T04:01:54.739Z,54.09
2016-11-10T04:02:54.718Z,54.28
2016-11-10T04:03:54.702Z,54
2016-11-10T04:04:54.687Z,54.19
2016-11-10T04:05:54.671Z,54.19
2016-11-10T04:06:54.657Z,54.19
2016-11-10T04:07:54.633Z,54.28
2016-11-10T04:08:54.620Z,54.28
2016-11-10T04:09:54.603Z,54.19
2016-11-10T04:10:54.596Z,54.19
2016-11-10T04:11:54.567Z,54.28
2016-11-10T04:12:54.249Z,54.38
2016-11-10T04:13:54.537Z,54.28
2016-11-10T04:14:54.513Z,54.19
2016-11-10T04:15:54.504Z,54.38
2016-11-10T04:16:54.483Z,54.28
2016-11-10T04:17:54.468Z,54.38
2016-11-10T04:18:54.453Z,54.38
2016-11-10T04:19:54.131Z,54.28
2016-11-10T04:20:54.416Z,54.28
2016-11-10T04:21:54.399Z,54.28
2016-11-10T04:22:54.384Z,54.45
2016-11-10T04:23:54.367Z,54.28
2016-11-10T04:24:54.351Z,54.47
2016-11-10T04:25:54.334Z,54.28
2016-11-10T04:26:54.315Z,54.47
2016-11-10T04:27:54.304Z,54.47
2016-11-10T04:28:54.285Z,54.28
2016-11-10T04:29:54.270Z,54.38
2016-11-10T04:30:54.253Z,53.97
2016-11-10T04:31:54.231Z,54.09
2016-11-10T04:32:54.215Z,53.97
2016-11-10T04:33:54.201Z,54.19
2016-11-10T04:34:54.182Z,54.28
2016-11-10T04:35:54.168Z,54.19
2016-11-10T04:36:54.149Z,54.28
2016-11-10T04:37:54.136Z,54.28
2016-11-10T04:38:54.145Z,54
2016-11-10T04:39:54.100Z,54.19
2016-11-10T04:40:54.082Z,54.28
2016-11-10T04:41:54.067Z,54.25
2016-11-10T04:42:54.046Z,54.28
2016-11-10T04:43:54.035Z,54.19
2016-11-10T04:44:53.718Z,54.09
2016-11-10T04:45:54.040Z,54.06
2016-11-10T04:46:53.985Z,54
2016-11-10T04:47:53.962Z,54.28
2016-11-10T04:48:53.946Z,53.78
2016-11-10T04:49:53.930Z,54.28
2016-11-10T04:50:53.911Z,54.06
2016-11-10T04:51:53.895Z,54.35
2016-11-10T04:52:53.884Z,54.25
2016-11-10T04:53:53.565Z,54.16
2016-11-10T04:54:53.858Z,54.16
2016-11-10T04:55:53.828Z,54.16
2016-11-10T04:56:53.815Z,54.25
2016-11-10T04:57:53.496Z,54.09
2016-11-10T04:58:53.777Z,54.35
2016-11-10T04:59:53.762Z,54.35
2016-11-10T05:00:53.747Z,54.35
2016-11-10T05:01:53.727Z,54.35
2016-11-10T05:02:53.708Z,54.35
2016-11-10T05:03:53.695Z,54.38
2016-11-10T05:04:53.676Z,54.74
2016-11-10T05:05:53.659Z,54.77
2016-11-10T05:06:53.647Z,54.28
2016-11-10T05:07:53.626Z,53.9
2016-11-10T05:08:53.845Z,54.19
2016-11-10T05:09:53.592Z,53.52
2016-11-10T05:10:53.577Z,53.32
2016-11-10T05:11:53.598Z,53.45
2016-11-10T05:12:53.544Z,52.97
2016-11-10T05:13:53.523Z,52.97
2016-11-10T05:14:53.508Z,52.58
2016-11-10T05:15:53.495Z,52.68
2016-11-10T05:16:53.480Z,52.99
2016-11-10T05:17:53.462Z,52.12
2016-11-10T05:18:53.447Z,52.12
2016-11-10T05:19:53.424Z,51.93
2016-11-10T05:20:53.407Z,51.93
2016-11-10T05:21:53.388Z,51.93
2016-11-10T05:22:53.370Z,51.74
2016-11-10T05:23:53.395Z,51.84
2016-11-10T05:24:53.340Z,51.86
2016-11-10T05:25:53.321Z,51.76
2016-11-10T05:26:53.306Z,51.86
2016-11-10T05:27:53.290Z,51.86
2016-11-10T05:28:53.283Z,51.67
2016-11-10T05:29:53.256Z,51.67
2016-11-10T05:30:53.241Z,51.67
2016-11-10T05:31:53.224Z,51.86
2016-11-10T05:32:53.208Z,51.96
2016-11-10T05:33:53.187Z,51.76
2016-11-10T05:34:53.174Z,51.86
2016-11-10T05:35:53.157Z,51.86
2016-11-10T05:36:53.145Z,51.86
2016-11-10T05:37:53.126Z,51.76
2016-11-10T05:38:53.111Z,51.76
2016-11-10T05:39:53.088Z,51.67
2016-11-10T05:40:53.073Z,51.96
2016-11-10T05:41:53.060Z,51.67
2016-11-10T05:42:53.042Z,51.86
2016-11-10T05:43:53.025Z,52.06
2016-11-10T05:44:53.008Z,51.76
2016-11-10T05:45:52.993Z,52.15
2016-11-10T05:46:52.975Z,52.06
2016-11-10T05:47:52.959Z,52.15
2016-11-10T05:48:52.941Z,52.25
2016-11-10T05:49:52.938Z,52.25
2016-11-10T05:50:52.913Z,52.34
2016-11-10T05:51:52.892Z,52.34
2016-11-10T05:52:52.880Z,52.63
2016-11-10T05:53:53.165Z,53.02
2016-11-10T05:54:52.850Z,52.25
2016-11-10T05:55:52.828Z,53.02
2016-11-10T05:56:52.811Z,52.44
2016-11-10T05:57:52.796Z,52.44
2016-11-10T05:58:52.781Z,52.44
2016-11-10T05:59:52.765Z,52.15
2016-11-10T06:00:52.741Z,52.06
2016-11-10T06:01:52.734Z,52.25
2016-11-10T06:02:52.716Z,52.44
2016-11-10T06:03:52.697Z,52.25
2016-11-10T06:04:52.682Z,52.15
2016-11-10T06:05:52.665Z,51.86
2016-11-10T06:06:52.650Z,51.86
2016-11-10T06:07:52.630Z,52.06
2016-11-10T06:08:52.615Z,51.86
2016-11-10T06:09:52.602Z,51.86
2016-11-10T06:10:52.589Z,51.96
2016-11-10T06:11:52.566Z,51.57
2016-11-10T06:12:52.550Z,51.67
2016-11-10T06:13:52.535Z,51.76
2016-11-10T06:14:52.512Z,51.86
2016-11-10T06:15:52.500Z,51.67
2016-11-10T06:16:52.483Z,51.67
2016-11-10T06:17:52.468Z,51.57
2016-11-10T06:18:52.453Z,51.67
2016-11-10T06:19:52.435Z,51.19
2016-11-10T06:20:52.422Z,50.51
2016-11-10T06:21:52.403Z,49.84
2016-11-10T06:22:52.388Z,48.69
2016-11-10T06:23:52.375Z,48.49
2016-11-10T06:24:52.354Z,48.49
2016-11-10T06:25:52.339Z,48.88
2016-11-10T06:26:52.025Z,48.02
2016-11-10T06:27:52.312Z,47.13
2016-11-10T06:28:51.987Z,47.7
2016-11-10T06:29:52.278Z,47.51
2016-11-10T06:30:52.260Z,47.13
2016-11-10T06:31:52.241Z,46.84
2016-11-10T06:32:52.224Z,46.26
2016-11-10T06:33:52.213Z,45.59
2016-11-10T06:34:52.189Z,47.41
2016-11-10T06:35:52.175Z,47.31
2016-11-10T06:36:52.161Z,48.38
2016-11-10T06:37:52.140Z,47.51
2016-11-10T06:38:52.125Z,48.57
2016-11-10T06:39:52.109Z,48.4
2016-11-10T06:40:52.092Z,48.79
2016-11-10T06:41:52.089Z,48.59
2016-11-10T06:42:52.062Z,48.88
2016-11-10T06:43:52.047Z,48.79
2016-11-10T06:44:51.725Z,48.97
2016-11-10T06:45:52.016Z,49.07
2016-11-10T06:46:51.999Z,48.88
2016-11-10T06:47:51.982Z,48.79
2016-11-10T06:48:51.964Z,48.88
2016-11-10T06:49:51.947Z,48.88
2016-11-10T06:50:51.933Z,48.97
2016-11-10T06:51:51.915Z,49.27
2016-11-10T06:52:51.904Z,48.88
2016-11-10T06:53:51.886Z,48.97
2016-11-10T06:54:51.868Z,49.27
2016-11-10T06:55:51.850Z,49.17
2016-11-10T06:56:51.835Z,48.88
2016-11-10T06:57:51.817Z,49.17
2016-11-10T06:58:51.804Z,49.36
2016-11-10T06:59:51.786Z,49.17
2016-11-10T07:00:51.773Z,48.88
2016-11-10T07:01:51.754Z,49.36
2016-11-10T07:02:51.744Z,49.27
2016-11-10T07:03:51.726Z,48.88
2016-11-10T07:04:51.705Z,49.46
2016-11-10T07:05:51.688Z,49.07
2016-11-10T07:06:51.673Z,48.97
2016-11-10T07:07:51.662Z,49.17
2016-11-10T07:08:51.638Z,49.17
2016-11-10T07:09:51.625Z,48.9
2016-11-10T07:10:51.618Z,49.17
2016-11-10T07:11:51.598Z,49.17
2016-11-10T07:12:51.594Z,49.27
2016-11-10T07:13:51.564Z,49.17
2016-11-10T07:14:51.543Z,49.46
2016-11-10T07:15:51.528Z,49.38
2016-11-10T07:16:51.512Z,49.38
2016-11-10T07:17:51.495Z,49.36
2016-11-10T07:18:51.482Z,49.07
2016-11-10T07:19:51.167Z,49.29
2016-11-10T07:20:51.450Z,48.97
2016-11-10T07:21:51.429Z,49.65
2016-11-10T07:22:51.416Z,49.27
2016-11-10T07:23:51.398Z,49.48
2016-11-10T07:24:51.785Z,49.46
2016-11-10T07:25:51.580Z,49.55
2016-11-10T07:26:51.350Z,49.36
2016-11-10T07:27:51.344Z,49.68
2016-11-10T07:28:51.318Z,49.46
2016-11-10T07:29:51.303Z,49.58
2016-11-10T07:30:51.287Z,49.55
2016-11-10T07:31:51.269Z,49.48
2016-11-10T07:32:51.257Z,49.27
2016-11-10T07:33:51.238Z,49.46
2016-11-10T07:34:51.223Z,49.36
2016-11-10T07:35:51.211Z,49.68
2016-11-10T07:36:51.192Z,49.36
2016-11-10T07:37:51.179Z,49.27
2016-11-10T07:38:51.159Z,49.55
2016-11-10T07:39:51.143Z,49.29
2016-11-10T07:40:51.129Z,49.58
2016-11-10T07:41:51.110Z,49.77
2016-11-10T07:42:51.095Z,49.46
2016-11-10T07:43:51.090Z,49.29
2016-11-10T07:44:51.066Z,49.38
2016-11-10T07:45:50.744Z,49.48
2016-11-10T07:46:51.036Z,49.58
2016-11-10T07:47:51.015Z,49.48
2016-11-10T07:48:50.995Z,49.38
2016-11-10T07:49:50.986Z,49.38
2016-11-10T07:50:50.967Z,49.38
2016-11-10T07:51:50.952Z,49.58
2016-11-10T07:52:50.935Z,49.68
2016-11-10T07:53:50.923Z,49.38
2016-11-10T07:54:50.908Z,49.29
2016-11-10T07:55:50.890Z,45.15
2016-11-10T07:56:50.876Z,44.14
2016-11-10T07:57:50.855Z,47.75
2016-11-10T07:58:50.837Z,50.63
2016-11-10T07:59:50.822Z,50.01
2016-11-10T08:00:50.805Z,49.84
2016-11-10T08:01:50.486Z,49.19
2016-11-10T08:02:50.775Z,48.64
2016-11-10T08:03:50.757Z,48.57
2016-11-10T08:04:50.748Z,48.57
2016-11-10T08:05:50.729Z,47.82
2016-11-10T08:06:50.712Z,47.34
2016-11-10T08:07:50.699Z,47.34
2016-11-10T08:08:50.688Z,47.24
2016-11-10T08:09:50.662Z,47.63
2016-11-10T08:10:50.644Z,47.27
2016-11-10T08:11:50.625Z,47.27
2016-11-10T08:12:50.621Z,47.82
2016-11-10T08:13:50.601Z,47.75
2016-11-10T08:14:50.584Z,47.85
2016-11-10T08:15:50.563Z,47.85
2016-11-10T08:16:50.547Z,47.94
2016-11-10T08:17:50.537Z,47.94
2016-11-10T08:18:50.515Z,48.23
2016-11-10T08:19:50.499Z,48.61
2016-11-10T08:20:50.508Z,48.61
2016-11-10T08:21:50.469Z,48.61
2016-11-10T08:22:50.457Z,48.43
2016-11-10T08:23:50.443Z,48.43
2016-11-10T08:24:50.423Z,48.52
2016-11-10T08:25:50.402Z,48.52
2016-11-10T08:26:50.391Z,48.61
2016-11-10T08:27:50.378Z,48.43
2016-11-10T08:28:50.357Z,48.71
2016-11-10T08:29:50.339Z,48.33
2016-11-10T08:30:50.328Z,48.43
2016-11-10T08:31:50.304Z,48.71
2016-11-10T08:32:50.368Z,48.33
2016-11-10T08:33:50.286Z,48.9
2016-11-10T08:34:50.259Z,48.71
2016-11-10T08:35:50.246Z,48.9
2016-11-10T08:36:50.226Z,48.9
2016-11-10T08:37:50.211Z,48.81
2016-11-10T08:38:50.202Z,48.71
2016-11-10T08:39:50.181Z,48.61
2016-11-10T08:40:50.203Z,48.71
2016-11-10T08:41:50.150Z,48.9
2016-11-10T08:42:50.136Z,48.81
2016-11-10T08:43:50.116Z,48.9
2016-11-10T08:44:50.098Z,49
2016-11-10T08:45:50.090Z,48.9
2016-11-10T08:46:50.072Z,48.71
2016-11-10T08:47:49.752Z,48.81
2016-11-10T08:48:50.043Z,48.81
2016-11-10T08:49:50.021Z,48.81
2016-11-10T08:50:50.007Z,49
2016-11-10T08:51:49.993Z,48.81
2016-11-10T08:52:49.972Z,48.81
2016-11-10T08:53:49.955Z,48.81
2016-11-10T08:54:49.948Z,48.83
2016-11-10T08:55:49.929Z,49
2016-11-10T08:56:49.911Z,48.71
2016-11-10T08:57:49.894Z,48.9
2016-11-10T08:58:49.877Z,48.81
2016-11-10T08:59:49.861Z,48.74
2016-11-10T09:00:49.844Z,48.9
2016-11-10T09:01:49.832Z,48.93
2016-11-10T09:02:49.822Z,48.9
2016-11-10T09:03:49.795Z,48.93
2016-11-10T09:04:49.786Z,49.22
2016-11-10T09:05:49.764Z,49.19
2016-11-10T09:06:49.749Z,49.48
2016-11-10T09:07:49.739Z,49.1
2016-11-10T09:08:49.720Z,49.1
2016-11-10T09:09:49.706Z,49.19
2016-11-10T09:10:49.392Z,48.9
2016-11-10T09:11:49.672Z,49.1
2016-11-10T09:12:49.654Z,49.19
2016-11-10T09:13:49.640Z,49.19
2016-11-10T09:14:49.627Z,49.19
2016-11-10T09:15:49.606Z,49.22
2016-11-10T09:16:49.593Z,49.19
2016-11-10T09:17:49.577Z,49.1
2016-11-10T09:18:49.560Z,49
2016-11-10T09:19:49.545Z,49.02
2016-11-10T09:20:49.532Z,49.19
2016-11-10T09:21:49.509Z,49.22
2016-11-10T09:22:49.504Z,49.29
2016-11-10T09:23:49.481Z,49.22
2016-11-10T09:24:49.470Z,49.29
2016-11-10T09:25:49.460Z,49.29
2016-11-10T09:26:49.436Z,49.29
2016-11-10T09:27:49.421Z,49.19
2016-11-10T09:28:49.402Z,49.32
2016-11-10T09:29:49.386Z,49.12
2016-11-10T09:30:49.380Z,49.22
2016-11-10T09:31:49.354Z,49.22
2016-11-10T09:32:49.338Z,49.22
2016-11-10T09:33:49.324Z,49.38
2016-11-10T09:34:49.310Z,49.22
2016-11-10T09:35:49.288Z,49.12
2016-11-10T09:36:49.276Z,49.22
2016-11-10T09:37:49.260Z,49.41
2016-11-10T09:38:49.243Z,49.58
2016-11-10T09:39:49.229Z,49.6
2016-11-10T09:40:49.213Z,49.32
2016-11-10T09:41:49.197Z,49.22
2016-11-10T09:42:49.260Z,49.48
2016-11-10T09:43:49.163Z,49.7
2016-11-10T09:44:49.385Z,49.6
2016-11-10T09:45:49.132Z,49.12
2016-11-10T09:46:49.119Z,49.12
2016-11-10T09:47:49.138Z,49.12
2016-11-10T09:48:49.084Z,49.6
2016-11-10T09:49:49.071Z,49.12
2016-11-10T09:50:49.052Z,49.12
2016-11-10T09:51:49.041Z,49.32
2016-11-10T09:52:49.026Z,49.7
2016-11-10T09:53:49.007Z,49.6
2016-11-10T09:54:48.991Z,49.6
2016-11-10T09:55:48.981Z,49.38
2016-11-10T09:56:48.960Z,49.7
2016-11-10T09:57:48.941Z,49.6
2016-11-10T09:58:48.929Z,49.6
2016-11-10T09:59:48.923Z,49.41
2016-11-10T10:00:48.900Z,49.32
2016-11-10T10:01:48.880Z,49.41
2016-11-10T10:02:48.871Z,49.7
2016-11-10T10:03:48.848Z,49.41
2016-11-10T10:04:48.831Z,49.6
2016-11-10T10:05:48.819Z,49.51
2016-11-10T10:06:48.804Z,49.32
2016-11-10T10:07:48.783Z,49.32
2016-11-10T10:08:48.771Z,49.41
2016-11-10T10:09:48.762Z,49.51
2016-11-10T10:10:48.739Z,49.22
2016-11-10T10:11:48.722Z,49.41
2016-11-10T10:12:48.720Z,49.32
2016-11-10T10:13:48.693Z,49.22
2016-11-10T10:14:48.678Z,49.32
2016-11-10T10:15:48.660Z,49.79
2016-11-10T10:16:48.647Z,50.09
2016-11-10T10:17:48.628Z,49.51
2016-11-10T10:18:48.613Z,50.06
2016-11-10T10:19:48.600Z,49.79
2016-11-10T10:20:48.281Z,49.7
2016-11-10T10:21:48.573Z,49.7
2016-11-10T10:22:48.550Z,49.87
2016-11-10T10:23:48.537Z,49.79
2016-11-10T10:24:48.220Z,49.89
2016-11-10T10:25:48.504Z,50.09
2016-11-10T10:26:48.489Z,49.79
2016-11-10T10:27:48.474Z,49.7
2016-11-10T10:28:48.461Z,45.27
2016-11-10T10:29:48.441Z,45.78
2016-11-10T10:30:48.430Z,46.69
2016-11-10T10:31:48.413Z,46.24
2016-11-10T10:32:48.391Z,47.17
2016-11-10T10:33:48.378Z,50.27
2016-11-10T10:34:48.369Z,49.15
2016-11-10T10:35:48.346Z,48.3
2016-11-10T10:36:48.328Z,47.94
2016-11-10T10:37:48.314Z,47.97
2016-11-10T10:38:48.300Z,48.38
2016-11-10T10:39:48.281Z,48.38
2016-11-10T10:40:48.266Z,48.66
2016-11-10T10:41:48.251Z,48.49
2016-11-10T10:42:47.930Z,48.49
2016-11-10T10:43:48.217Z,48.4
2016-11-10T10:44:48.203Z,48.49
2016-11-10T10:45:48.186Z,48.59
2016-11-10T10:46:48.174Z,48.11
2016-11-10T10:47:48.151Z,47.82
2016-11-10T10:48:48.140Z,47.92
2016-11-10T10:49:48.121Z,47.72
2016-11-10T10:50:48.114Z,47.27
2016-11-10T10:51:48.099Z,47.65
2016-11-10T10:52:48.073Z,47.94
2016-11-10T10:53:48.056Z,48.13
2016-11-10T10:54:48.043Z,48.61
2016-11-10T10:55:48.024Z,48.61
2016-11-10T10:56:48.011Z,48.61
2016-11-10T10:57:47.993Z,48.52
2016-11-10T10:58:47.978Z,47.36
2016-11-10T10:59:47.962Z,47.27
2016-11-10T11:00:47.948Z,47.75
2016-11-10T11:01:47.933Z,48.13
2016-11-10T11:02:47.915Z,48.52
2016-11-10T11:03:47.898Z,48.52
2016-11-10T11:04:47.879Z,48.43
2016-11-10T11:05:47.866Z,48.52
2016-11-10T11:06:47.853Z,48.43
2016-11-10T11:07:47.840Z,48.23
2016-11-10T11:08:47.820Z,48.43
2016-11-10T11:09:47.803Z,48.52
2016-11-10T11:10:47.787Z,48.43
2016-11-10T11:11:47.767Z,48.71
2016-11-10T11:12:47.751Z,48.54
2016-11-10T11:13:47.742Z,48.61
2016-11-10T11:14:47.725Z,48.74
2016-11-10T11:15:47.706Z,48.64
2016-11-10T11:16:47.695Z,48.43
2016-11-10T11:17:47.675Z,48.71
2016-11-10T11:18:47.657Z,48.61
2016-11-10T11:19:47.647Z,48.61
2016-11-10T11:20:47.633Z,48.61
2016-11-10T11:21:47.614Z,48.71
2016-11-10T11:22:47.599Z,48.71
2016-11-10T11:23:47.581Z,48.61
2016-11-10T11:24:47.567Z,48.61
2016-11-10T11:25:47.552Z,48.9
2016-11-10T11:26:47.534Z,48.81
2016-11-10T11:27:47.227Z,48.81
2016-11-10T11:28:47.510Z,48.9
2016-11-10T11:29:47.193Z,48.71
2016-11-10T11:30:47.176Z,48.9
2016-11-10T11:31:47.153Z,48.81
2016-11-10T11:32:47.143Z,49.19
2016-11-10T11:33:47.125Z,49.1
2016-11-10T11:34:47.129Z,49.38
2016-11-10T11:35:47.098Z,49.29
2016-11-10T11:36:47.399Z,49.29
2016-11-10T11:37:47.069Z,49.38
2016-11-10T11:38:47.053Z,49.58
2016-11-10T11:39:47.027Z,49.48
2016-11-10T11:40:47.324Z,49.77
2016-11-10T11:41:47.308Z,49.96
2016-11-10T11:42:47.283Z,50.25
2016-11-10T11:43:47.269Z,49.87
2016-11-10T11:44:47.247Z,49.87
2016-11-10T11:45:46.938Z,50.35
2016-11-10T11:46:46.965Z,49.87
2016-11-10T11:47:46.904Z,49.68
2016-11-10T11:48:47.185Z,49.96
2016-11-10T11:49:47.169Z,49.77
2016-11-10T11:50:47.173Z,49.58
2016-11-10T11:51:46.870Z,49.48
2016-11-10T11:52:47.127Z,49.96
2016-11-10T11:53:47.110Z,49.77
2016-11-10T11:54:46.797Z,49.29
2016-11-10T11:55:46.792Z,49.48
2016-11-10T11:56:46.780Z,50.35
2016-11-10T11:57:46.745Z,49.48
2016-11-10T11:58:46.739Z,49.29
2016-11-10T11:59:47.010Z,49.96
2016-11-10T12:00:46.990Z,49.48
2016-11-10T12:01:46.683Z,49.77
2016-11-10T12:02:46.662Z,49.48
2016-11-10T12:03:46.658Z,49.58
2016-11-10T12:04:46.939Z,49.87
2016-11-10T12:05:46.616Z,49.77
2016-11-10T12:06:46.606Z,49.77
2016-11-10T12:07:46.895Z,49.48
2016-11-10T12:08:46.572Z,49.48
2016-11-10T12:09:46.559Z,49.77
2016-11-10T12:10:46.546Z,49.68
2016-11-10T12:11:46.821Z,49.77
2016-11-10T12:12:46.508Z,49.87
2016-11-10T12:13:46.502Z,49.29
2016-11-10T12:14:46.482Z,50.06
2016-11-10T12:15:46.758Z,49.77
2016-11-10T12:16:46.742Z,49.38
2016-11-10T12:17:46.726Z,49.48
2016-11-10T12:18:46.408Z,49.48
2016-11-10T12:19:46.705Z,49.48
2016-11-10T12:20:46.689Z,49.41
2016-11-10T12:21:46.363Z,49.68
2016-11-10T12:22:46.646Z,50.06
2016-11-10T12:23:46.627Z,49.87
2016-11-10T12:24:46.619Z,50.06
2016-11-10T12:25:46.602Z,49.99
2016-11-10T12:26:46.281Z,49.29
2016-11-10T12:27:46.278Z,50.06
2016-11-10T12:28:46.248Z,50.18
2016-11-10T12:29:46.534Z,49.48
2016-11-10T12:30:46.520Z,49.48
2016-11-10T12:31:46.501Z,49.77
2016-11-10T12:32:46.487Z,49.48
2016-11-10T12:33:46.170Z,49.58
2016-11-10T12:34:46.454Z,49.79
2016-11-10T12:35:46.439Z,49.87
2016-11-10T12:36:46.422Z,49.89
2016-11-10T12:37:46.407Z,50.06
2016-11-10T12:38:46.390Z,49.89
2016-11-10T12:39:46.376Z,48.61
2016-11-10T12:40:46.359Z,47.27
2016-11-10T12:41:46.342Z,48.52
2016-11-10T12:42:46.338Z,48.61
2016-11-10T12:43:46.312Z,49.19
2016-11-10T12:44:46.297Z,49.68
2016-11-10T12:45:46.279Z,49.58
2016-11-10T12:46:46.266Z,49.38
2016-11-10T12:47:46.259Z,49.99
2016-11-10T12:48:46.231Z,49.68
2016-11-10T12:49:46.218Z,49.29
2016-11-10T12:50:46.203Z,49.89
2016-11-10T12:51:46.188Z,49.77
2016-11-10T12:52:46.169Z,50.06
2016-11-10T12:53:46.156Z,49.22
2016-11-10T12:54:46.142Z,49.41
2016-11-10T12:55:46.396Z,49.79
2016-11-10T12:56:46.110Z,50.76
2016-11-10T12:57:46.091Z,49.89